メインページ
METAR-TAF:

METAR-TAF

空港 :

ロングイェールビーン, ノルウェー

緯度: 78-15N, 経度: 015-28E, 海抜: 2m

現時点の気象観測

当レポートは1時間6分前の18:20(UTC)に作成
南東の風 12kt
気温 -1°C
湿度 69%
気圧 1013 hPa
視程10km以上
高度2000ftの雲はほとんどない

METAR: ENSB 181820Z 14012KT 9999 FEW020 M01/M06 Q1013 RMK WIND 1400FT 14012KT

時間: 21:26 (19:26 UTC)

予報

予報は18日の 18時(UTC)から 19日の 18時(UTC)まで有効
南東の風 12kt
視程10km以上
高度2000ftの雲はほとんどない

TAF: ENSB 1818/1918 13012KT 9999 FEW020

4,000以上の空港の気象観測と天気予報(METAR報とTAF報)

利用可能な観測所は地図上に黄色い丸と赤い丸で示す。

丸の上にカーソルを重ねると観測所名を参照できる。

次にクリックすると気象観測と天気予報を参照できる。

マップの切り替え:黒色「×」印の緑ボタンをクリックして拡大、「-」印の緑ボタンをクリックして縮小、緑色の三角印をクリックして隣りの地図に切り替え


METAR-TAF: